createdAt,value
2023-02-01T00:01:29.699Z,23.93
2023-02-01T00:03:58.130Z,33.30
2023-02-01T00:06:26.665Z,26.33
2023-02-01T00:08:55.824Z,26.30
2023-02-01T00:11:25.045Z,22.73
2023-02-01T00:13:54.095Z,22.20
2023-02-01T00:16:26.639Z,24.67
2023-02-01T00:19:00.709Z,24.50
2023-02-01T00:21:29.528Z,35.53
2023-02-01T00:23:57.725Z,23.40
2023-02-01T00:26:32.408Z,18.90
2023-02-01T00:29:00.812Z,20.27
2023-02-01T00:31:30.852Z,23.50
2023-02-01T00:33:59.286Z,21.57
2023-02-01T00:36:27.526Z,17.70
2023-02-01T00:38:56.058Z,19.97
2023-02-01T00:41:24.716Z,19.90
2023-02-01T00:43:53.212Z,21.10
2023-02-01T00:46:22.567Z,28.27
2023-02-01T00:48:52.648Z,20.30
2023-02-01T00:51:22.617Z,21.27
2023-02-01T00:53:51.428Z,22.57
2023-02-01T00:56:20.250Z,17.03
2023-02-01T00:58:48.616Z,25.07
2023-02-01T01:01:19.382Z,16.40
2023-02-01T01:03:51.861Z,19.37
2023-02-01T01:06:23.898Z,15.50
2023-02-01T01:08:54.498Z,18.70
2023-02-01T01:11:25.931Z,21.70
2023-02-01T01:13:56.345Z,25.80
2023-02-01T01:16:25.879Z,21.97
2023-02-01T01:18:54.838Z,29.40
2023-02-01T01:21:24.813Z,17.10
2023-02-01T01:23:53.489Z,34.70
2023-02-01T01:26:23.894Z,21.30
2023-02-01T01:28:52.805Z,19.57
2023-02-01T01:31:22.342Z,15.47
2023-02-01T01:33:51.989Z,22.00
2023-02-01T01:36:20.737Z,12.47
2023-02-01T01:38:51.192Z,25.33
2023-02-01T01:41:21.432Z,21.73
2023-02-01T01:43:56.258Z,24.60
2023-02-01T01:46:27.354Z,18.93
2023-02-01T01:49:03.576Z,22.80
2023-02-01T01:51:35.125Z,16.77
2023-02-01T01:54:08.946Z,26.10
2023-02-01T01:56:37.936Z,14.33
2023-02-01T01:59:07.603Z,23.27
2023-02-01T02:01:35.856Z,21.43
2023-02-01T02:04:04.996Z,23.60
2023-02-01T02:06:40.962Z,31.20
2023-02-01T02:09:10.694Z,16.73
2023-02-01T02:11:39.132Z,21.53
2023-02-01T02:14:10.840Z,29.87
2023-02-01T02:16:54.363Z,33.10
2023-02-01T02:20:10.643Z,23.10
2023-02-01T02:23:14.439Z,21.07
2023-02-01T02:26:23.797Z,24.03
2023-02-01T02:29:19.475Z,24.80
2023-02-01T02:32:11.096Z,14.20
2023-02-01T02:34:42.643Z,30.97
2023-02-01T02:37:20.610Z,21.37
2023-02-01T02:39:55.403Z,22.30
2023-02-01T02:42:49.211Z,34.77
2023-02-01T02:45:40.136Z,23.10
2023-02-01T02:48:15.364Z,31.80
2023-02-01T02:51:06.554Z,30.90
2023-02-01T02:53:55.620Z,20.77
2023-02-01T02:56:43.903Z,25.43
2023-02-01T02:59:33.747Z,27.80
2023-02-01T03:02:20.006Z,17.63
2023-02-01T03:04:57.587Z,36.33
2023-02-01T03:07:52.185Z,22.17
2023-02-01T03:10:28.419Z,21.67
2023-02-01T03:13:02.439Z,19.00
2023-02-01T03:15:38.838Z,16.07
2023-02-01T03:18:13.405Z,18.73
2023-02-01T03:20:45.661Z,23.37
2023-02-01T03:23:19.317Z,27.43
2023-02-01T03:25:51.061Z,26.37
2023-02-01T03:28:22.525Z,21.90
2023-02-01T03:30:54.246Z,26.57
2023-02-01T03:33:25.631Z,21.30
2023-02-01T03:36:01.535Z,22.40
2023-02-01T03:38:37.150Z,21.77
2023-02-01T03:41:14.501Z,26.53
2023-02-01T03:43:55.108Z,23.43
2023-02-01T03:46:34.259Z,24.67
2023-02-01T03:49:09.054Z,19.47
2023-02-01T03:51:40.602Z,21.27
2023-02-01T03:54:14.139Z,21.70
2023-02-01T03:56:46.544Z,25.50
2023-02-01T03:59:15.845Z,29.47
2023-02-01T04:01:44.430Z,18.80
2023-02-01T04:04:21.081Z,21.77
2023-02-01T04:06:49.689Z,27.47
2023-02-01T04:09:19.778Z,27.43
2023-02-01T04:11:48.043Z,18.93
2023-02-01T04:14:56.479Z,32.40
2023-02-01T04:18:05.056Z,25.27
2023-02-01T04:21:13.534Z,24.17
2023-02-01T04:24:23.379Z,28.93
2023-02-01T04:27:31.673Z,25.73
2023-02-01T04:30:40.170Z,27.10
2023-02-01T04:33:48.764Z,23.30
2023-02-01T04:36:57.199Z,19.83
2023-02-01T04:40:08.411Z,19.13
2023-02-01T04:43:16.919Z,19.20
2023-02-01T04:46:25.531Z,28.10
2023-02-01T04:49:34.170Z,23.60
2023-02-01T04:52:42.578Z,26.07
2023-02-01T04:55:52.651Z,21.40
2023-02-01T04:59:01.014Z,24.73
2023-02-01T05:02:09.482Z,26.07
2023-02-01T05:05:18.247Z,18.93
2023-02-01T05:08:27.788Z,16.07
2023-02-01T05:12:09.192Z,29.40
2023-02-01T05:15:20.985Z,27.73
2023-02-01T05:18:29.399Z,21.33
2023-02-01T05:21:37.652Z,24.60
2023-02-01T05:24:45.906Z,23.87
2023-02-01T05:27:55.891Z,25.43
2023-02-01T05:31:12.108Z,23.33
2023-02-01T05:34:20.592Z,22.50
2023-02-01T05:37:29.109Z,24.67
2023-02-01T05:40:37.537Z,26.13
2023-02-01T05:43:12.839Z,22.47
2023-02-01T05:45:41.532Z,29.93
2023-02-01T05:48:09.753Z,25.17
2023-02-01T05:50:38.111Z,27.77
2023-02-01T05:53:06.886Z,19.20
2023-02-01T05:55:35.108Z,27.97
2023-02-01T05:58:03.497Z,23.80
2023-02-01T06:00:33.849Z,29.57
2023-02-01T06:03:02.668Z,25.43
2023-02-01T06:05:31.276Z,30.03
2023-02-01T06:07:59.833Z,16.53
2023-02-01T06:10:28.136Z,19.27
2023-02-01T06:12:56.986Z,22.93
2023-02-01T06:15:25.218Z,33.93
2023-02-01T06:17:55.709Z,26.33
2023-02-01T06:20:24.798Z,19.87
2023-02-01T06:22:56.314Z,17.63
2023-02-01T06:25:24.575Z,20.07
2023-02-01T06:27:52.959Z,37.57
2023-02-01T06:30:21.705Z,17.30
2023-02-01T06:32:55.645Z,21.30
2023-02-01T06:35:23.889Z,22.27
2023-02-01T06:37:53.108Z,29.37
2023-02-01T06:40:21.687Z,24.93
2023-02-01T06:42:51.083Z,32.73
2023-02-01T06:45:19.332Z,27.50
2023-02-01T06:47:47.535Z,23.30
2023-02-01T06:50:17.927Z,24.50
2023-02-01T06:52:46.458Z,26.00
2023-02-01T06:55:14.980Z,25.13
2023-02-01T06:57:43.446Z,26.13
2023-02-01T07:00:12.796Z,24.60
2023-02-01T07:02:40.971Z,30.23
2023-02-01T07:05:09.793Z,27.10
2023-02-01T07:07:39.465Z,17.17
2023-02-01T07:10:08.217Z,30.87
2023-02-01T07:12:36.856Z,29.77
2023-02-01T07:15:05.733Z,28.27
2023-02-01T07:17:33.976Z,31.47
2023-02-01T07:20:02.767Z,37.07
2023-02-01T07:22:31.241Z,25.30
2023-02-01T07:25:00.853Z,28.33
2023-02-01T07:27:29.185Z,20.87
2023-02-01T07:29:57.693Z,27.53
2023-02-01T07:32:25.939Z,31.10
2023-02-01T07:34:54.541Z,25.37
2023-02-01T07:37:22.777Z,23.00
2023-02-01T07:39:50.983Z,19.60
2023-02-01T07:42:21.233Z,24.53
2023-02-01T07:44:49.468Z,30.50
2023-02-01T07:47:17.699Z,24.17
2023-02-01T07:49:46.181Z,30.03
2023-02-01T07:52:17.754Z,23.90
2023-02-01T07:54:46.581Z,20.30
2023-02-01T07:57:15.004Z,24.87
2023-02-01T07:59:58.474Z,31.23
2023-02-01T08:02:27.253Z,21.90
2023-02-01T08:04:55.522Z,27.73
2023-02-01T08:07:23.802Z,25.80
2023-02-01T08:09:52.172Z,19.00
2023-02-01T08:12:20.355Z,18.00
2023-02-01T08:14:50.021Z,25.40
2023-02-01T08:17:18.532Z,21.97
2023-02-01T08:19:46.777Z,29.80
2023-02-01T08:22:14.991Z,24.57
2023-02-01T08:24:44.902Z,24.00
2023-02-01T08:27:13.647Z,24.73
2023-02-01T08:29:41.917Z,22.30
2023-02-01T08:32:11.873Z,23.67
2023-02-01T08:34:40.058Z,26.93
2023-02-01T08:37:08.318Z,25.60
2023-02-01T08:39:37.440Z,27.20
2023-02-01T08:42:22.255Z,21.43
2023-02-01T08:44:50.587Z,22.90
2023-02-01T08:47:20.169Z,23.40
2023-02-01T08:49:48.412Z,23.87
2023-02-01T08:52:16.881Z,28.67
2023-02-01T08:54:45.138Z,21.50
2023-02-01T08:57:13.392Z,26.37
2023-02-01T08:59:41.783Z,20.90
2023-02-01T09:02:14.003Z,19.70
2023-02-01T09:04:44.408Z,25.57
2023-02-01T09:07:14.132Z,29.23
2023-02-01T09:09:42.478Z,19.40
2023-02-01T09:12:10.839Z,27.43
2023-02-01T09:14:39.266Z,27.33
2023-02-01T09:17:07.529Z,19.57
2023-02-01T09:19:35.908Z,22.87
2023-02-01T09:22:05.416Z,24.93
2023-02-01T09:24:33.864Z,25.90
2023-02-01T09:27:02.457Z,19.40
2023-02-01T09:29:30.966Z,17.70
2023-02-01T09:32:03.982Z,20.17
2023-02-01T09:34:33.051Z,24.33
2023-02-01T09:37:01.313Z,26.60
2023-02-01T09:39:32.114Z,14.60
2023-02-01T09:42:10.475Z,26.63
2023-02-01T09:45:12.329Z,23.93
2023-02-01T09:47:48.484Z,20.43
2023-02-01T09:50:21.728Z,17.50
2023-02-01T09:52:58.199Z,15.40
2023-02-01T09:55:37.864Z,21.53
2023-02-01T09:58:09.639Z,23.27
2023-02-01T10:00:40.268Z,24.67
2023-02-01T10:03:14.556Z,17.13
2023-02-01T10:06:06.445Z,25.20
2023-02-01T10:08:49.462Z,17.20
2023-02-01T10:11:28.439Z,20.60
2023-02-01T10:14:05.662Z,16.73
2023-02-01T10:16:46.114Z,22.50
2023-02-01T10:19:41.199Z,14.30
2023-02-01T10:22:12.288Z,18.47
2023-02-01T10:24:44.888Z,10.33
2023-02-01T10:27:23.981Z,16.77
2023-02-01T10:29:56.108Z,11.97
2023-02-01T10:32:26.539Z,10.80
2023-02-01T10:35:00.052Z,17.87
2023-02-01T10:37:32.206Z,22.53
2023-02-01T10:40:03.873Z,14.80
2023-02-01T10:42:33.725Z,22.57
2023-02-01T10:45:04.932Z,16.03
2023-02-01T10:47:33.159Z,15.13
2023-02-01T10:50:16.091Z,12.50
2023-02-01T10:52:48.856Z,11.57
2023-02-01T10:55:41.424Z,15.53
2023-02-01T10:58:18.409Z,17.67
2023-02-01T11:00:49.995Z,15.07
2023-02-01T11:03:39.121Z,14.23
2023-02-01T11:06:25.569Z,14.03
2023-02-01T11:08:55.945Z,11.33
2023-02-01T11:11:24.665Z,16.37
2023-02-01T11:14:00.222Z,16.43
2023-02-01T11:16:35.987Z,10.63
2023-02-01T11:19:04.982Z,15.73
2023-02-01T11:21:33.741Z,13.73
2023-02-01T11:24:05.032Z,17.33
2023-02-01T11:26:35.039Z,20.13
2023-02-01T11:29:11.940Z,13.13
2023-02-01T11:31:42.284Z,16.30
2023-02-01T11:34:15.475Z,11.17
2023-02-01T11:36:44.843Z,11.53
2023-02-01T11:39:27.123Z,10.80
2023-02-01T11:42:03.388Z,14.37
2023-02-01T11:44:39.247Z,9.73
2023-02-01T11:47:28.584Z,10.33
2023-02-01T11:50:01.348Z,14.77
2023-02-01T11:52:47.349Z,8.40
2023-02-01T11:55:31.454Z,10.10
2023-02-01T11:58:14.444Z,8.37
2023-02-01T12:01:01.764Z,8.77
2023-02-01T12:03:59.138Z,10.83
2023-02-01T12:06:39.582Z,12.23
2023-02-01T12:09:23.730Z,12.93
2023-02-01T12:12:01.771Z,11.87
2023-02-01T12:14:47.484Z,9.27
2023-02-01T12:17:42.772Z,10.77
2023-02-01T12:20:37.640Z,9.60
2023-02-01T12:23:17.731Z,11.60
2023-02-01T12:26:02.648Z,9.97
2023-02-01T12:29:01.714Z,11.17
2023-02-01T12:31:52.594Z,9.80
2023-02-01T12:34:56.570Z,5.93
2023-02-01T12:37:42.212Z,8.87
2023-02-01T12:40:24.471Z,8.40
2023-02-01T12:43:00.831Z,7.97
2023-02-01T12:45:35.438Z,5.63
2023-02-01T12:48:17.891Z,8.70
2023-02-01T12:50:53.144Z,6.90
2023-02-01T12:53:29.785Z,8.30
2023-02-01T12:56:03.315Z,4.60
2023-02-01T12:58:40.457Z,8.03
2023-02-01T13:01:13.677Z,14.40
2023-02-01T13:03:46.776Z,7.73
2023-02-01T13:06:21.123Z,7.67
2023-02-01T13:08:54.690Z,7.50
2023-02-01T13:11:27.214Z,9.73
2023-02-01T13:14:02.857Z,11.80
2023-02-01T13:16:34.185Z,6.33
2023-02-01T13:19:11.475Z,8.23
2023-02-01T13:21:45.388Z,9.17
2023-02-01T13:24:30.688Z,8.00
2023-02-01T13:26:59.209Z,13.87
2023-02-01T13:29:28.902Z,9.80
2023-02-01T13:32:18.560Z,10.43
2023-02-01T13:35:17.271Z,8.10
2023-02-01T13:38:08.859Z,11.10
2023-02-01T13:40:41.426Z,5.07
2023-02-01T13:43:16.862Z,6.47
2023-02-01T13:45:49.275Z,11.40
2023-02-01T13:48:25.309Z,8.13
2023-02-01T13:50:56.770Z,10.77
2023-02-01T13:53:31.066Z,11.17
2023-02-01T13:56:02.210Z,7.07
2023-02-01T13:58:37.208Z,9.53
2023-02-01T14:01:35.285Z,9.97
2023-02-01T14:04:05.671Z,12.97
2023-02-01T14:06:47.046Z,6.70
2023-02-01T14:09:38.216Z,6.20
2023-02-01T14:12:43.822Z,11.33
2023-02-01T14:15:27.596Z,10.53
2023-02-01T14:17:57.026Z,13.60
2023-02-01T14:20:54.507Z,18.37
2023-02-01T14:23:30.980Z,16.70
2023-02-01T14:26:17.110Z,11.33
2023-02-01T14:29:02.582Z,7.27
2023-02-01T14:31:39.802Z,15.90
2023-02-01T14:34:17.583Z,15.93
2023-02-01T14:36:50.450Z,14.53
2023-02-01T14:39:30.303Z,11.60
2023-02-01T14:42:03.717Z,9.40
2023-02-01T14:44:38.050Z,16.67
2023-02-01T14:47:33.173Z,14.13
2023-02-01T14:50:37.755Z,13.83
2023-02-01T14:53:24.646Z,12.70
2023-02-01T14:55:55.943Z,12.33
2023-02-01T14:58:38.219Z,12.07
2023-02-01T15:01:16.026Z,13.20
2023-02-01T15:03:50.853Z,15.80
2023-02-01T15:06:29.771Z,17.87
2023-02-01T15:09:04.344Z,13.23
2023-02-01T15:11:32.887Z,12.00
2023-02-01T15:14:03.200Z,9.50
2023-02-01T15:16:31.427Z,16.63
2023-02-01T15:19:15.997Z,15.73
2023-02-01T15:21:49.527Z,14.60
2023-02-01T15:24:23.039Z,10.37
2023-02-01T15:26:52.197Z,13.13
2023-02-01T15:29:23.296Z,13.10
2023-02-01T15:31:53.645Z,23.50
2023-02-01T15:34:22.804Z,15.13
2023-02-01T15:37:02.603Z,19.60
2023-02-01T15:39:32.349Z,13.00
2023-02-01T15:42:04.177Z,15.87
2023-02-01T15:44:42.566Z,13.17
2023-02-01T15:47:18.422Z,15.83
2023-02-01T15:49:52.682Z,13.83
2023-02-01T15:52:27.356Z,16.77
2023-02-01T15:54:58.978Z,14.40
2023-02-01T15:57:32.762Z,12.00
2023-02-01T16:00:05.536Z,21.37
2023-02-01T16:02:39.063Z,15.93
2023-02-01T16:05:27.201Z,12.80
2023-02-01T16:08:05.121Z,15.83
2023-02-01T16:10:39.904Z,15.83
2023-02-01T16:13:08.426Z,16.60
2023-02-01T16:15:38.621Z,17.10
2023-02-01T16:18:08.841Z,14.93
2023-02-01T16:20:37.822Z,16.17
2023-02-01T16:23:06.697Z,20.63
2023-02-01T16:25:35.078Z,22.43
2023-02-01T16:28:04.492Z,26.80
2023-02-01T16:30:32.939Z,18.47
2023-02-01T16:33:06.921Z,25.27
2023-02-01T16:35:37.735Z,19.17
2023-02-01T16:38:10.091Z,16.40
2023-02-01T16:40:38.360Z,8.53
2023-02-01T16:43:15.263Z,20.93
2023-02-01T16:45:44.801Z,12.27
2023-02-01T16:48:21.241Z,18.77
2023-02-01T16:50:52.183Z,16.83
2023-02-01T16:53:22.396Z,19.80
2023-02-01T16:55:50.908Z,15.33
2023-02-01T16:58:19.665Z,20.03
2023-02-01T17:00:49.266Z,13.57
2023-02-01T17:03:25.166Z,25.27
2023-02-01T17:05:56.983Z,24.00
2023-02-01T17:08:33.117Z,26.93
2023-02-01T17:11:03.439Z,24.43
2023-02-01T17:13:32.186Z,26.53
2023-02-01T17:16:03.193Z,28.67
2023-02-01T17:18:36.584Z,24.80
2023-02-01T17:21:07.686Z,22.83
2023-02-01T17:23:36.307Z,21.67
2023-02-01T17:26:05.521Z,18.20
2023-02-01T17:28:36.476Z,20.97
2023-02-01T17:31:05.579Z,28.70
2023-02-01T17:33:38.475Z,19.03
2023-02-01T17:36:07.709Z,24.40
2023-02-01T17:38:35.934Z,24.37
2023-02-01T17:41:07.512Z,24.90
2023-02-01T17:43:35.791Z,15.17
2023-02-01T17:46:07.030Z,25.73
2023-02-01T17:48:36.687Z,19.50
2023-02-01T17:51:05.612Z,22.73
2023-02-01T17:53:35.819Z,22.90
2023-02-01T17:56:04.256Z,25.50
2023-02-01T17:58:33.531Z,29.00
2023-02-01T18:01:01.940Z,19.80
2023-02-01T18:03:33.038Z,23.93
2023-02-01T18:06:03.094Z,17.97
2023-02-01T18:08:33.597Z,20.73
2023-02-01T18:11:02.833Z,24.93
2023-02-01T18:13:32.216Z,27.13
2023-02-01T18:16:02.126Z,22.23
2023-02-01T18:18:31.266Z,23.77
2023-02-01T18:20:59.968Z,27.30
2023-02-01T18:23:30.157Z,26.53
2023-02-01T18:25:58.379Z,20.73
2023-02-01T18:28:26.588Z,23.50
2023-02-01T18:30:55.124Z,25.63
2023-02-01T18:33:23.700Z,22.20
2023-02-01T18:35:51.930Z,19.37
2023-02-01T18:38:20.452Z,24.23
2023-02-01T18:40:53.468Z,28.10
2023-02-01T18:43:22.516Z,22.67
2023-02-01T18:45:51.130Z,18.53
2023-02-01T18:48:22.270Z,20.90
2023-02-01T18:50:57.311Z,22.07
2023-02-01T18:53:27.608Z,18.73
2023-02-01T18:55:58.594Z,15.53
2023-02-01T18:58:27.863Z,27.70
2023-02-01T19:00:58.059Z,21.57
2023-02-01T19:03:27.103Z,18.10
2023-02-01T19:05:57.613Z,24.77
2023-02-01T19:08:26.519Z,20.67
2023-02-01T19:11:00.608Z,18.37
2023-02-01T19:13:31.610Z,26.90
2023-02-01T19:16:00.445Z,20.90
2023-02-01T19:18:28.837Z,23.53
2023-02-01T19:21:03.176Z,27.80
2023-02-01T19:23:31.727Z,22.27
2023-02-01T19:26:01.634Z,25.03
2023-02-01T19:28:29.896Z,29.60
2023-02-01T19:31:05.574Z,25.53
2023-02-01T19:33:34.404Z,22.00
2023-02-01T19:36:05.351Z,17.87
2023-02-01T19:38:33.863Z,26.80
2023-02-01T19:41:03.662Z,25.30
2023-02-01T19:43:32.628Z,23.70
2023-02-01T19:46:03.081Z,23.37
2023-02-01T19:48:31.950Z,26.93
2023-02-01T19:51:00.332Z,28.37
2023-02-01T19:53:29.883Z,28.30
2023-02-01T19:55:58.794Z,28.53
2023-02-01T19:58:28.437Z,27.53
2023-02-01T20:00:56.998Z,31.30
2023-02-01T20:03:25.885Z,27.93
2023-02-01T20:05:54.743Z,25.27
2023-02-01T20:08:24.063Z,26.10
2023-02-01T20:10:52.817Z,22.10
2023-02-01T20:13:21.459Z,21.43
2023-02-01T20:15:57.956Z,25.27
2023-02-01T20:18:26.546Z,26.93
2023-02-01T20:20:57.219Z,25.83
2023-02-01T20:23:26.189Z,25.27
2023-02-01T20:25:55.331Z,30.93
2023-02-01T20:28:23.670Z,26.63
2023-02-01T20:30:53.618Z,24.37
2023-02-01T20:33:21.851Z,29.83
2023-02-01T20:35:50.242Z,26.10
2023-02-01T20:38:18.603Z,18.50
2023-02-01T20:40:46.936Z,27.17
2023-02-01T20:43:15.295Z,31.17
2023-02-01T20:45:44.576Z,26.20
2023-02-01T20:48:14.919Z,23.13
2023-02-01T20:50:44.286Z,20.43
2023-02-01T20:53:17.058Z,34.10
2023-02-01T20:55:53.158Z,24.20
2023-02-01T20:58:22.399Z,27.93
2023-02-01T21:00:51.264Z,23.50
2023-02-01T21:03:21.248Z,28.83
2023-02-01T21:05:51.868Z,29.63
2023-02-01T21:08:20.811Z,23.80
2023-02-01T21:10:58.711Z,29.27
2023-02-01T21:13:28.029Z,20.03
2023-02-01T21:15:56.214Z,30.33
2023-02-01T21:18:26.015Z,24.47
2023-02-01T21:20:54.394Z,17.40
2023-02-01T21:23:22.864Z,18.50
2023-02-01T21:25:51.524Z,20.33
2023-02-01T21:28:19.716Z,24.00
2023-02-01T21:30:47.957Z,19.03
2023-02-01T21:33:16.192Z,23.97
2023-02-01T21:35:45.941Z,23.70
2023-02-01T21:38:14.214Z,20.23
2023-02-01T21:40:42.392Z,18.40
2023-02-01T21:43:10.720Z,29.43
2023-02-01T21:45:43.573Z,20.17
2023-02-01T21:48:12.187Z,25.93
2023-02-01T21:50:40.715Z,12.80
2023-02-01T21:53:10.292Z,19.40
2023-02-01T21:55:38.894Z,19.73
2023-02-01T21:58:12.642Z,20.37
2023-02-01T22:00:45.741Z,19.70
2023-02-01T22:03:14.248Z,24.90
2023-02-01T22:05:43.296Z,21.93
2023-02-01T22:08:12.847Z,24.50
2023-02-01T22:10:42.134Z,24.07
2023-02-01T22:13:10.496Z,20.90
2023-02-01T22:15:38.730Z,21.63
2023-02-01T22:18:07.239Z,19.10
2023-02-01T22:20:35.736Z,18.80
2023-02-01T22:23:03.967Z,23.10
2023-02-01T22:25:35.198Z,22.73
2023-02-01T22:28:32.095Z,20.77
2023-02-01T22:30:52.217Z,15.30
2023-02-01T22:33:21.466Z,24.87
2023-02-01T22:35:50.393Z,23.70
2023-02-01T22:38:19.091Z,13.67
2023-02-01T22:40:55.553Z,22.97
2023-02-01T22:43:23.844Z,21.63
2023-02-01T22:45:52.404Z,15.97
2023-02-01T22:49:01.124Z,19.93
2023-02-01T22:52:09.467Z,26.47
2023-02-01T22:55:17.768Z,14.90
2023-02-01T22:58:27.412Z,23.17
2023-02-01T23:00:56.011Z,18.70
2023-02-01T23:03:26.811Z,25.70
2023-02-01T23:05:59.773Z,20.50
2023-02-01T23:08:28.176Z,18.73
2023-02-01T23:10:59.872Z,24.90
2023-02-01T23:13:29.490Z,21.83
2023-02-01T23:15:58.119Z,24.30
2023-02-01T23:18:28.142Z,25.97
2023-02-01T23:20:57.622Z,12.97
2023-02-01T23:23:26.819Z,19.03
2023-02-01T23:25:55.187Z,26.60
2023-02-01T23:28:23.344Z,16.77
2023-02-01T23:30:53.043Z,15.10
2023-02-01T23:33:23.712Z,12.93
2023-02-01T23:35:59.131Z,25.80
2023-02-01T23:38:28.179Z,17.67
2023-02-01T23:40:59.516Z,19.10
2023-02-01T23:43:45.376Z,16.40
2023-02-01T23:46:16.494Z,25.60
2023-02-01T23:48:45.751Z,19.57
2023-02-01T23:51:15.695Z,27.17
2023-02-01T23:53:44.774Z,25.43
2023-02-01T23:56:19.418Z,19.13
2023-02-01T23:58:48.281Z,24.60
